Create Custom Reports and Graphics: Custom Report

Siberia 8700'

OV

10/19/21 2:45 AM (-07:00)
Updated Every 15 Minutes
Temp 28.2 °F   9.9
RH 98 %   2
Wet Bulb 28.0 °F   10.0
Dew Pt 27.6 °F   10.4
Wind Dir WSW | 239 °
Wind Spd 11.5 mph   16.4
Wind Gust 13.0 mph   23.3
WindChill 18.1 °F   18.7
Daily Min Temp 26.5 °F   9.4
Daily Max Temp 28.4 °F   8.4

Last 24 Hours

OV-Siberia 8700'

Hourly Data | America/Los_Angeles
as of 10/19/21 2:55 AM PDT
Date & Time Temp (°F) RH (%) Dew Pt (°F) Wet Bulb (°F) Wind Dir (°) Wind Spd (mph) Wind Gust (mph) WindChill (°F) Daily Min Temp (°F) Daily Max Temp (°F)
10/19/21 - 0200 27.6 99 27.3 27.5 WSW | 239 14.0 20.7 15.8 26.5 27.7
10/19/21 - 0100 26.6 99 26.4 26.5 WSW | 239 18.3 31.9 13.8 26.5 27.0
10/19/21 - 0000 26.6 99 26.3 26.5 WSW | 239 22.9 30.1 11.8 17.1 27.5
10/18/21 - 2300 26.1 99 25.8 26.0 WSW | 239 25.9 35.1 10.5 17.1 27.5
10/18/21 - 2200 25.9 99 25.6 25.8 WSW | 239 21.7 29.5 10.0 17.1 27.5
10/18/21 - 2100 23.8 98 23.3 23.5 WSW | 239 22.6 29.9 7.9 17.1 27.5
10/18/21 - 2000 23.6 98 23.1 23.4 WSW | 239 19.9 27.9 8.9 17.1 27.5
10/18/21 - 1900 23.5 98 23.0 23.2 WSW | 239 10.5 19.4 13.9 17.1 27.5
10/18/21 - 1800 24.5 98 24.1 24.4 WSW | 239 5.4 16.0 19.4 17.1 27.5
10/18/21 - 1700 24.1 98 23.6 23.9 WSW | 239 1.3 7.5 23.4 17.1 27.5
10/18/21 - 1600 26.2 98 25.8 26.0 WSW | 239 1.6 14.4 24.9 17.1 27.5
10/18/21 - 1500 25.7 98 25.2 25.5 WSW | 239 10.0 17.6 15.3 17.1 25.7
10/18/21 - 1400 24.1 97 23.4 23.8 WSW | 239 12.0 20.2 12.9 17.1 24.7
10/18/21 - 1300 23.5 97 22.8 23.2 WSW | 239 11.5 19.1 12.7 17.1 24.7
10/18/21 - 1200 22.5 97 21.7 22.2 WSW | 239 14.0 20.4 10.0 17.1 23.0
10/18/21 - 1100 22.3 97 21.5 22.0 WSW | 239 15.4 24.8 8.7 17.1 22.9
10/18/21 - 1000 21.6 96 20.7 21.2 WSW | 239 21.2 31.7 4.6 17.1 21.6
10/18/21 - 0900 19.9 96 19.0 19.6 WSW | 239 24.7 35.5 2.3 17.1 20.0
10/18/21 - 0800 19.3 96 18.4 19.0 WSW | 239 31.1 39.2 -0.4 17.1 19.9
10/18/21 - 0700 18.5 96 17.5 18.2 WSW | 239 28.7 37.4 -0.4 17.1 19.9
10/18/21 - 0600 18.5 96 17.5 18.2 WSW | 239 34.0 45.3 -1.5 17.1 19.9
10/18/21 - 0500 18.8 96 17.7 18.4 WSW | 239 42.1 56.9 -2.9 17.1 19.9
10/18/21 - 0400 18.7 96 17.7 18.4 WSW | 239 31.8 59.7 -0.9 17.1 19.9
10/18/21 - 0300 18.6 96 17.5 18.2 W | 264 29.0 42.5 -0.9 17.1 19.9
10/18/21 - 0200 17.4 95 16.3 17.1 WSW | 241 30.5 45.0 -0.2 17.1 19.9
Max 27.6 99 27.3 27.5 - 42.1 59.7 24.9 26.5 27.7
Avg 22.7 97 22.1 22.5 - 20.0 30.3 8.8 - -
Min 17.4 95 16.3 17.1 - 1.3 7.5 -2.9 17.1 19.9

Last 30 Days

OV-Siberia 8700'

Daily Data | America/Los_Angeles
as of 10/19/21 2:55 AM PDT
Date Daily Max Temp (°F) Time of Max Temp Daily Min Temp (°F) Time of Min Temp Wind Spd (mph) Daily Max Wind (mph) Time of Max Wind Max Wind Dir (°) Wet Bulb (°F) WetB Hrs <28F (hrs)
10/18/21 27.5 1536 17.1 0153 21.0 78.0 0001 WSW | 257 21.8 24.0
10/17/21 41.1 1257 19.9 2359 39.5 83.8 2351 SW | 235 28.6 5.8
10/16/21 58.7 1412 39.6 2328 15.3 29.9 1655 WNW | 287 34.9 0.0
10/15/21 58.0 1450 40.5 0001 7.1 27.4 2353 ENE | 68 34.4 0.5
10/14/21 41.6 2350 25.7 0703 13.0 30.5 2043 ENE | 73 28.9 9.7
10/13/21 40.7 1532 28.3 0506 12.5 31.3 1605 WNW | 290 26.0 16.6
10/12/21 30.9 2333 11.3 0703 20.9 64.8 0155 ENE | 64 17.3 24.0
10/11/21 32.6 0001 15.3 0001 31.7 66.2 2140 NE | 41 20.2 19.8
10/10/21 50.9 1405 32.5 2354 17.9 56.1 2354 S | 171 32.1 1.5
10/9/21 39.4 1631 22.9 0704 12.8 31.6 2203 ENE | 66 26.7 11.4
10/8/21 25.9 1927 22.3 2229 23.5 35.8 2049 SW | 214 24.0 4.8
10/7/21 38.8 1523 33.6 2334 22.0 41.7 1655 SSW | 207 35.0 0.0
10/6/21 45.4 1322 36.6 2102 35.7 65.8 1403 SW | 231 36.1 0.0
10/5/21 53.0 1446 40.4 2357 26.9 55.8 2251 W | 271 37.3 0.0
10/4/21 57.7 1527 48.0 0720 23.4 47.4 1401 SW | 216 37.3 0.0
10/3/21 62.9 1251 50.4 0821 9.7 25.4 1659 SW | 216 38.3 0.0
10/2/21 64.2 1543 47.3 0651 9.6 24.7 0519 NNE | 31 38.3 0.0
10/1/21 60.0 1608 42.7 0032 9.3 28.4 1637 SW | 219 37.0 0.0
9/30/21 54.4 1712 35.0 0407 19.8 40.4 0203 E | 90 33.2 0.0
9/29/21 47.8 1621 30.3 0628 18.8 39.6 2324 NE | 55 30.9 3.8
9/28/21 48.3 1535 28.5 0441 18.5 86.5 0124 SW | 227 29.8 8.6
9/27/21 51.9 1505 35.1 2315 43.0 74.5 2310 SSW | 210 34.3 0.0
9/26/21 59.7 1429 46.5 2332 36.6 60.4 1441 SSW | 197 39.9 0.0
9/25/21 64.7 1500 50.0 0649 25.2 46.6 1526 WSW | 256 42.4 0.0
9/24/21 70.8 1448 47.5 0217 17.1 48.6 0009 ENE | 76 42.3 0.0
9/23/21 59.6 1555 42.7 0604 17.8 45.8 2356 ENE | 74 41.7 0.0
9/22/21 62.1 1434 48.7 2258 26.0 65.4 1134 SW | 223 41.8 0.0
9/21/21 65.1 1545 45.1 0149 20.4 44.3 1346 WSW | 258 41.3 0.0
9/20/21 53.9 1540 34.0 0645 31.8 47.5 1955 NNE | 19 35.9 0.0
9/19/21 50.3 1707 34.4 0930 39.5 96.8 0659 SSW | 202 37.4 0.0
Max 70.8 - 50.4 - 43.0 96.8 - - 42.4 24.0
Avg - - - - 22.2 - - - 33.5 -
Min 25.9 - 11.3 - 7.1 24.7 - - 17.3 0.0
Calm: 0.0%
Calm: 0.0%